sensor_id;sensor_type;location;lat;lon;timestamp;P1;durP1;ratioP1;P2;durP2;ratioP2
73599;SDS011;61877;48.246;9.220;2024-03-06T00:01:35;17.63;;;8.03;;
73599;SDS011;61877;48.246;9.220;2024-03-06T00:04:02;15.43;;;7.85;;
73599;SDS011;61877;48.246;9.220;2024-03-06T00:06:29;14.20;;;7.82;;
73599;SDS011;61877;48.246;9.220;2024-03-06T00:08:57;15.82;;;8.07;;
73599;SDS011;61877;48.246;9.220;2024-03-06T00:11:23;17.05;;;7.95;;
73599;SDS011;61877;48.246;9.220;2024-03-06T00:13:50;18.47;;;8.37;;
73599;SDS011;61877;48.246;9.220;2024-03-06T00:16:17;16.75;;;8.55;;
73599;SDS011;61877;48.246;9.220;2024-03-06T00:18:45;16.75;;;7.95;;
73599;SDS011;61877;48.246;9.220;2024-03-06T00:21:12;16.55;;;8.13;;
73599;SDS011;61877;48.246;9.220;2024-03-06T00:23:39;17.80;;;8.50;;
73599;SDS011;61877;48.246;9.220;2024-03-06T00:26:07;16.37;;;8.13;;
73599;SDS011;61877;48.246;9.220;2024-03-06T00:28:33;15.38;;;8.10;;
73599;SDS011;61877;48.246;9.220;2024-03-06T00:31:00;13.57;;;7.20;;
73599;SDS011;61877;48.246;9.220;2024-03-06T00:33:27;13.52;;;6.70;;
73599;SDS011;61877;48.246;9.220;2024-03-06T00:35:53;12.75;;;7.00;;
73599;SDS011;61877;48.246;9.220;2024-03-06T00:38:20;14.67;;;7.70;;
73599;SDS011;61877;48.246;9.220;2024-03-06T00:40:47;14.52;;;7.80;;
73599;SDS011;61877;48.246;9.220;2024-03-06T00:43:15;16.30;;;8.15;;
73599;SDS011;61877;48.246;9.220;2024-03-06T00:45:41;16.38;;;8.35;;
73599;SDS011;61877;48.246;9.220;2024-03-06T00:48:08;17.63;;;8.73;;
73599;SDS011;61877;48.246;9.220;2024-03-06T00:50:35;18.70;;;8.80;;
73599;SDS011;61877;48.246;9.220;2024-03-06T00:53:02;16.05;;;8.15;;
73599;SDS011;61877;48.246;9.220;2024-03-06T00:55:29;17.27;;;8.30;;
73599;SDS011;61877;48.246;9.220;2024-03-06T00:57:56;16.63;;;8.70;;
73599;SDS011;61877;48.246;9.220;2024-03-06T01:00:25;16.42;;;8.68;;
73599;SDS011;61877;48.246;9.220;2024-03-06T01:02:52;17.13;;;9.10;;
73599;SDS011;61877;48.246;9.220;2024-03-06T01:05:19;18.45;;;8.50;;
73599;SDS011;61877;48.246;9.220;2024-03-06T01:07:46;15.50;;;7.68;;
73599;SDS011;61877;48.246;9.220;2024-03-06T01:10:13;14.13;;;7.63;;
73599;SDS011;61877;48.246;9.220;2024-03-06T01:12:40;16.08;;;8.00;;
73599;SDS011;61877;48.246;9.220;2024-03-06T01:15:06;16.03;;;8.37;;
73599;SDS011;61877;48.246;9.220;2024-03-06T01:17:35;16.92;;;8.35;;
73599;SDS011;61877;48.246;9.220;2024-03-06T01:20:02;15.27;;;8.25;;
73599;SDS011;61877;48.246;9.220;2024-03-06T01:22:29;15.18;;;8.25;;
73599;SDS011;61877;48.246;9.220;2024-03-06T01:24:56;17.92;;;8.80;;
73599;SDS011;61877;48.246;9.220;2024-03-06T01:27:23;18.20;;;8.50;;
73599;SDS011;61877;48.246;9.220;2024-03-06T01:29:49;17.17;;;8.90;;
73599;SDS011;61877;48.246;9.220;2024-03-06T01:32:16;16.92;;;7.97;;
73599;SDS011;61877;48.246;9.220;2024-03-06T01:34:44;15.52;;;7.63;;
73599;SDS011;61877;48.246;9.220;2024-03-06T01:37:11;15.65;;;8.15;;
73599;SDS011;61877;48.246;9.220;2024-03-06T01:39:37;16.97;;;9.00;;
73599;SDS011;61877;48.246;9.220;2024-03-06T01:42:04;20.90;;;9.98;;
73599;SDS011;61877;48.246;9.220;2024-03-06T01:44:31;18.67;;;9.43;;
73599;SDS011;61877;48.246;9.220;2024-03-06T01:46:58;18.25;;;9.20;;
73599;SDS011;61877;48.246;9.220;2024-03-06T01:49:24;18.00;;;9.45;;
73599;SDS011;61877;48.246;9.220;2024-03-06T01:52:07;18.57;;;9.37;;
73599;SDS011;61877;48.246;9.220;2024-03-06T01:54:38;19.05;;;9.48;;
73599;SDS011;61877;48.246;9.220;2024-03-06T01:57:04;18.55;;;9.70;;
73599;SDS011;61877;48.246;9.220;2024-03-06T01:59:34;16.08;;;8.82;;
73599;SDS011;61877;48.246;9.220;2024-03-06T02:02:03;17.73;;;9.43;;
73599;SDS011;61877;48.246;9.220;2024-03-06T02:04:30;16.13;;;8.87;;
73599;SDS011;61877;48.246;9.220;2024-03-06T02:06:58;15.38;;;9.15;;
73599;SDS011;61877;48.246;9.220;2024-03-06T02:09:26;17.60;;;8.80;;
73599;SDS011;61877;48.246;9.220;2024-03-06T02:11:52;16.63;;;9.02;;
73599;SDS011;61877;48.246;9.220;2024-03-06T02:14:19;18.98;;;9.70;;
73599;SDS011;61877;48.246;9.220;2024-03-06T02:16:46;16.40;;;9.20;;
73599;SDS011;61877;48.246;9.220;2024-03-06T02:19:12;17.00;;;9.43;;
73599;SDS011;61877;48.246;9.220;2024-03-06T02:21:42;18.77;;;9.10;;
73599;SDS011;61877;48.246;9.220;2024-03-06T02:24:09;18.00;;;8.82;;
73599;SDS011;61877;48.246;9.220;2024-03-06T02:26:36;15.60;;;8.98;;
73599;SDS011;61877;48.246;9.220;2024-03-06T02:29:03;17.53;;;9.00;;
73599;SDS011;61877;48.246;9.220;2024-03-06T02:31:29;15.95;;;9.00;;
73599;SDS011;61877;48.246;9.220;2024-03-06T02:33:56;18.30;;;9.02;;
73599;SDS011;61877;48.246;9.220;2024-03-06T02:36:23;17.23;;;8.57;;
73599;SDS011;61877;48.246;9.220;2024-03-06T02:38:51;18.08;;;8.80;;
73599;SDS011;61877;48.246;9.220;2024-03-06T02:41:18;17.13;;;9.07;;
73599;SDS011;61877;48.246;9.220;2024-03-06T02:43:44;14.73;;;8.25;;
73599;SDS011;61877;48.246;9.220;2024-03-06T02:46:14;17.35;;;8.30;;
73599;SDS011;61877;48.246;9.220;2024-03-06T02:48:40;17.15;;;8.70;;
73599;SDS011;61877;48.246;9.220;2024-03-06T02:51:07;16.88;;;9.15;;
73599;SDS011;61877;48.246;9.220;2024-03-06T02:53:34;16.70;;;8.50;;
73599;SDS011;61877;48.246;9.220;2024-03-06T02:56:02;15.23;;;8.15;;
73599;SDS011;61877;48.246;9.220;2024-03-06T02:58:29;19.35;;;9.45;;
73599;SDS011;61877;48.246;9.220;2024-03-06T03:00:55;17.85;;;8.25;;
73599;SDS011;61877;48.246;9.220;2024-03-06T03:03:22;18.17;;;8.73;;
73599;SDS011;61877;48.246;9.220;2024-03-06T03:05:49;16.80;;;8.63;;
73599;SDS011;61877;48.246;9.220;2024-03-06T03:08:15;18.58;;;8.90;;
73599;SDS011;61877;48.246;9.220;2024-03-06T03:10:42;16.42;;;8.90;;
73599;SDS011;61877;48.246;9.220;2024-03-06T03:13:12;17.63;;;8.70;;
73599;SDS011;61877;48.246;9.220;2024-03-06T03:15:39;17.65;;;9.38;;
73599;SDS011;61877;48.246;9.220;2024-03-06T03:18:06;16.53;;;8.17;;
73599;SDS011;61877;48.246;9.220;2024-03-06T03:20:33;16.27;;;8.30;;
73599;SDS011;61877;48.246;9.220;2024-03-06T03:23:01;18.05;;;8.85;;
73599;SDS011;61877;48.246;9.220;2024-03-06T03:25:29;15.82;;;8.05;;
73599;SDS011;61877;48.246;9.220;2024-03-06T03:27:56;15.98;;;8.52;;
73599;SDS011;61877;48.246;9.220;2024-03-06T03:30:25;15.60;;;8.40;;
73599;SDS011;61877;48.246;9.220;2024-03-06T03:32:52;16.77;;;9.13;;
73599;SDS011;61877;48.246;9.220;2024-03-06T03:35:20;28.95;;;12.90;;
73599;SDS011;61877;48.246;9.220;2024-03-06T03:37:46;18.88;;;10.10;;
73599;SDS011;61877;48.246;9.220;2024-03-06T03:40:13;15.85;;;8.38;;
73599;SDS011;61877;48.246;9.220;2024-03-06T03:42:40;16.00;;;9.23;;
73599;SDS011;61877;48.246;9.220;2024-03-06T03:45:07;16.35;;;8.65;;
73599;SDS011;61877;48.246;9.220;2024-03-06T03:47:35;15.75;;;8.40;;
73599;SDS011;61877;48.246;9.220;2024-03-06T03:50:02;15.73;;;7.93;;
73599;SDS011;61877;48.246;9.220;2024-03-06T03:52:36;15.18;;;7.88;;
73599;SDS011;61877;48.246;9.220;2024-03-06T03:55:03;18.30;;;10.37;;
73599;SDS011;61877;48.246;9.220;2024-03-06T03:57:32;15.88;;;8.80;;
73599;SDS011;61877;48.246;9.220;2024-03-06T03:59:59;16.75;;;8.07;;
73599;SDS011;61877;48.246;9.220;2024-03-06T04:02:26;15.63;;;7.43;;
73599;SDS011;61877;48.246;9.220;2024-03-06T04:04:54;16.90;;;9.27;;
73599;SDS011;61877;48.246;9.220;2024-03-06T04:07:20;14.40;;;7.63;;
73599;SDS011;61877;48.246;9.220;2024-03-06T04:09:47;15.63;;;7.55;;
73599;SDS011;61877;48.246;9.220;2024-03-06T04:12:14;15.35;;;7.65;;
73599;SDS011;61877;48.246;9.220;2024-03-06T04:14:40;14.75;;;8.13;;
73599;SDS011;61877;48.246;9.220;2024-03-06T04:17:07;14.48;;;7.90;;
73599;SDS011;61877;48.246;9.220;2024-03-06T04:19:35;13.80;;;7.27;;
73599;SDS011;61877;48.246;9.220;2024-03-06T04:22:05;15.05;;;7.55;;
73599;SDS011;61877;48.246;9.220;2024-03-06T04:24:32;13.73;;;7.80;;
73599;SDS011;61877;48.246;9.220;2024-03-06T04:26:59;13.82;;;7.68;;
73599;SDS011;61877;48.246;9.220;2024-03-06T04:29:26;14.77;;;8.07;;
73599;SDS011;61877;48.246;9.220;2024-03-06T04:31:52;14.37;;;7.53;;
73599;SDS011;61877;48.246;9.220;2024-03-06T04:34:19;14.77;;;8.02;;
73599;SDS011;61877;48.246;9.220;2024-03-06T04:36:46;15.18;;;7.47;;
73599;SDS011;61877;48.246;9.220;2024-03-06T04:39:14;14.48;;;7.43;;
73599;SDS011;61877;48.246;9.220;2024-03-06T04:41:41;13.90;;;7.80;;
73599;SDS011;61877;48.246;9.220;2024-03-06T04:44:08;13.70;;;6.67;;
73599;SDS011;61877;48.246;9.220;2024-03-06T04:46:35;14.73;;;8.00;;
73599;SDS011;61877;48.246;9.220;2024-03-06T04:49:02;13.20;;;6.97;;
73599;SDS011;61877;48.246;9.220;2024-03-06T04:51:29;13.90;;;7.35;;
73599;SDS011;61877;48.246;9.220;2024-03-06T04:53:56;14.88;;;7.90;;
73599;SDS011;61877;48.246;9.220;2024-03-06T05:29:17;15.85;;;7.25;;
73599;SDS011;61877;48.246;9.220;2024-03-06T05:32:01;15.02;;;7.30;;
73599;SDS011;61877;48.246;9.220;2024-03-06T05:34:45;15.10;;;7.00;;
73599;SDS011;61877;48.246;9.220;2024-03-06T05:37:29;16.45;;;7.80;;
73599;SDS011;61877;48.246;9.220;2024-03-06T05:40:13;19.07;;;8.53;;
73599;SDS011;61877;48.246;9.220;2024-03-06T05:42:58;17.13;;;8.68;;
73599;SDS011;61877;48.246;9.220;2024-03-06T05:45:43;16.00;;;8.15;;
73599;SDS011;61877;48.246;9.220;2024-03-06T05:48:27;17.38;;;8.35;;
73599;SDS011;61877;48.246;9.220;2024-03-06T05:51:11;16.55;;;8.18;;
73599;SDS011;61877;48.246;9.220;2024-03-06T05:53:55;15.80;;;7.67;;
73599;SDS011;61877;48.246;9.220;2024-03-06T05:56:39;16.20;;;7.88;;
73599;SDS011;61877;48.246;9.220;2024-03-06T05:59:24;16.30;;;8.20;;
73599;SDS011;61877;48.246;9.220;2024-03-06T06:01:52;16.42;;;8.30;;
73599;SDS011;61877;48.246;9.220;2024-03-06T06:04:19;14.38;;;7.30;;
73599;SDS011;61877;48.246;9.220;2024-03-06T06:06:46;15.57;;;7.77;;
73599;SDS011;61877;48.246;9.220;2024-03-06T06:09:12;14.32;;;7.38;;
73599;SDS011;61877;48.246;9.220;2024-03-06T06:11:39;13.68;;;7.13;;
73599;SDS011;61877;48.246;9.220;2024-03-06T06:14:06;13.60;;;6.03;;
73599;SDS011;61877;48.246;9.220;2024-03-06T06:16:36;14.18;;;7.10;;
73599;SDS011;61877;48.246;9.220;2024-03-06T06:19:04;13.83;;;6.70;;
73599;SDS011;61877;48.246;9.220;2024-03-06T06:21:32;13.70;;;6.57;;
73599;SDS011;61877;48.246;9.220;2024-03-06T06:23:58;13.85;;;6.82;;
73599;SDS011;61877;48.246;9.220;2024-03-06T06:26:25;12.88;;;6.63;;
73599;SDS011;61877;48.246;9.220;2024-03-06T06:28:52;13.93;;;6.93;;
73599;SDS011;61877;48.246;9.220;2024-03-06T06:31:18;14.07;;;7.30;;
73599;SDS011;61877;48.246;9.220;2024-03-06T06:33:45;15.73;;;8.02;;
73599;SDS011;61877;48.246;9.220;2024-03-06T06:36:13;13.77;;;7.20;;
73599;SDS011;61877;48.246;9.220;2024-03-06T06:38:39;14.32;;;7.15;;
73599;SDS011;61877;48.246;9.220;2024-03-06T06:41:06;15.23;;;7.95;;
73599;SDS011;61877;48.246;9.220;2024-03-06T06:43:33;14.43;;;6.87;;
73599;SDS011;61877;48.246;9.220;2024-03-06T06:45:59;13.15;;;6.57;;
73599;SDS011;61877;48.246;9.220;2024-03-06T06:48:29;13.05;;;6.35;;
73599;SDS011;61877;48.246;9.220;2024-03-06T06:50:56;11.70;;;5.90;;
73599;SDS011;61877;48.246;9.220;2024-03-06T06:53:24;11.85;;;6.20;;
73599;SDS011;61877;48.246;9.220;2024-03-06T06:55:50;10.57;;;5.63;;
73599;SDS011;61877;48.246;9.220;2024-03-06T06:58:17;12.55;;;6.10;;
73599;SDS011;61877;48.246;9.220;2024-03-06T07:00:44;11.93;;;6.82;;
73599;SDS011;61877;48.246;9.220;2024-03-06T07:03:10;10.95;;;5.55;;
73599;SDS011;61877;48.246;9.220;2024-03-06T07:05:37;11.38;;;5.40;;
73599;SDS011;61877;48.246;9.220;2024-03-06T07:08:04;10.63;;;5.60;;
73599;SDS011;61877;48.246;9.220;2024-03-06T07:10:33;10.98;;;5.40;;
73599;SDS011;61877;48.246;9.220;2024-03-06T07:13:00;9.50;;;4.78;;
73599;SDS011;61877;48.246;9.220;2024-03-06T07:15:27;9.88;;;4.60;;
73599;SDS011;61877;48.246;9.220;2024-03-06T07:17:53;11.50;;;5.40;;
73599;SDS011;61877;48.246;9.220;2024-03-06T07:20:20;9.77;;;4.57;;
73599;SDS011;61877;48.246;9.220;2024-03-06T07:22:47;9.55;;;4.55;;
73599;SDS011;61877;48.246;9.220;2024-03-06T07:25:13;9.43;;;4.28;;
73599;SDS011;61877;48.246;9.220;2024-03-06T07:27:42;9.95;;;5.03;;
73599;SDS011;61877;48.246;9.220;2024-03-06T07:30:09;10.15;;;4.95;;
73599;SDS011;61877;48.246;9.220;2024-03-06T07:32:41;10.13;;;5.00;;
73599;SDS011;61877;48.246;9.220;2024-03-06T07:35:08;10.45;;;5.40;;
73599;SDS011;61877;48.246;9.220;2024-03-06T07:37:36;14.00;;;5.45;;
73599;SDS011;61877;48.246;9.220;2024-03-06T07:40:03;10.82;;;5.18;;
73599;SDS011;61877;48.246;9.220;2024-03-06T07:42:33;11.65;;;5.82;;
73599;SDS011;61877;48.246;9.220;2024-03-06T07:45:01;9.93;;;4.47;;
73599;SDS011;61877;48.246;9.220;2024-03-06T07:47:28;10.63;;;4.93;;
73599;SDS011;61877;48.246;9.220;2024-03-06T07:49:55;11.43;;;5.50;;
73599;SDS011;61877;48.246;9.220;2024-03-06T07:52:22;13.35;;;6.20;;
73599;SDS011;61877;48.246;9.220;2024-03-06T07:54:49;12.23;;;5.95;;
73599;SDS011;61877;48.246;9.220;2024-03-06T07:57:15;13.37;;;6.50;;
73599;SDS011;61877;48.246;9.220;2024-03-06T07:59:45;11.25;;;5.90;;
73599;SDS011;61877;48.246;9.220;2024-03-06T08:02:13;11.13;;;5.50;;
73599;SDS011;61877;48.246;9.220;2024-03-06T08:04:40;11.27;;;5.55;;
73599;SDS011;61877;48.246;9.220;2024-03-06T08:07:07;12.27;;;5.53;;
73599;SDS011;61877;48.246;9.220;2024-03-06T08:09:34;12.13;;;5.70;;
73599;SDS011;61877;48.246;9.220;2024-03-06T08:12:02;10.80;;;5.10;;
73599;SDS011;61877;48.246;9.220;2024-03-06T08:14:29;9.60;;;5.25;;
73599;SDS011;61877;48.246;9.220;2024-03-06T08:16:56;10.30;;;5.43;;
73599;SDS011;61877;48.246;9.220;2024-03-06T08:19:24;10.18;;;5.28;;
73599;SDS011;61877;48.246;9.220;2024-03-06T08:21:51;9.97;;;4.83;;
73599;SDS011;61877;48.246;9.220;2024-03-06T08:24:18;10.43;;;5.22;;
73599;SDS011;61877;48.246;9.220;2024-03-06T08:26:44;10.05;;;5.05;;
73599;SDS011;61877;48.246;9.220;2024-03-06T08:29:11;9.38;;;4.70;;
73599;SDS011;61877;48.246;9.220;2024-03-06T08:31:38;9.77;;;5.10;;
73599;SDS011;61877;48.246;9.220;2024-03-06T08:34:05;9.70;;;4.90;;
73599;SDS011;61877;48.246;9.220;2024-03-06T08:36:33;9.85;;;4.55;;
73599;SDS011;61877;48.246;9.220;2024-03-06T08:39:00;9.15;;;4.47;;
73599;SDS011;61877;48.246;9.220;2024-03-06T08:41:27;9.05;;;4.50;;
73599;SDS011;61877;48.246;9.220;2024-03-06T08:43:54;8.82;;;4.47;;
73599;SDS011;61877;48.246;9.220;2024-03-06T08:46:20;9.13;;;4.60;;
73599;SDS011;61877;48.246;9.220;2024-03-06T08:48:47;10.07;;;5.00;;
73599;SDS011;61877;48.246;9.220;2024-03-06T08:51:17;8.32;;;4.10;;
73599;SDS011;61877;48.246;9.220;2024-03-06T08:53:47;8.65;;;4.20;;
73599;SDS011;61877;48.246;9.220;2024-03-06T08:56:14;8.30;;;4.00;;
73599;SDS011;61877;48.246;9.220;2024-03-06T08:58:41;8.87;;;4.30;;
73599;SDS011;61877;48.246;9.220;2024-03-06T09:01:10;8.77;;;4.20;;
73599;SDS011;61877;48.246;9.220;2024-03-06T09:03:37;9.38;;;4.15;;
73599;SDS011;61877;48.246;9.220;2024-03-06T09:06:04;8.80;;;4.10;;
73599;SDS011;61877;48.246;9.220;2024-03-06T09:08:33;7.50;;;3.47;;
73599;SDS011;61877;48.246;9.220;2024-03-06T09:11:01;8.37;;;3.80;;
73599;SDS011;61877;48.246;9.220;2024-03-06T09:13:28;7.70;;;3.60;;
73599;SDS011;61877;48.246;9.220;2024-03-06T09:15:55;7.43;;;3.65;;
73599;SDS011;61877;48.246;9.220;2024-03-06T09:18:21;7.20;;;3.35;;
73599;SDS011;61877;48.246;9.220;2024-03-06T09:20:48;7.47;;;3.20;;
73599;SDS011;61877;48.246;9.220;2024-03-06T09:23:15;7.80;;;3.60;;
73599;SDS011;61877;48.246;9.220;2024-03-06T09:25:42;9.93;;;4.20;;
73599;SDS011;61877;48.246;9.220;2024-03-06T09:28:12;7.22;;;3.22;;
73599;SDS011;61877;48.246;9.220;2024-03-06T09:30:39;12.30;;;5.00;;
73599;SDS011;61877;48.246;9.220;2024-03-06T09:33:06;7.10;;;3.45;;
73599;SDS011;61877;48.246;9.220;2024-03-06T09:35:33;6.80;;;3.17;;
73599;SDS011;61877;48.246;9.220;2024-03-06T09:38:00;8.32;;;4.00;;
73599;SDS011;61877;48.246;9.220;2024-03-06T09:40:26;7.10;;;3.00;;
73599;SDS011;61877;48.246;9.220;2024-03-06T09:42:55;7.88;;;3.42;;
73599;SDS011;61877;48.246;9.220;2024-03-06T09:45:23;6.50;;;2.90;;
73599;SDS011;61877;48.246;9.220;2024-03-06T09:47:50;7.47;;;3.30;;
73599;SDS011;61877;48.246;9.220;2024-03-06T09:50:17;7.55;;;3.50;;
73599;SDS011;61877;48.246;9.220;2024-03-06T09:52:46;7.20;;;3.55;;
73599;SDS011;61877;48.246;9.220;2024-03-06T09:55:17;6.78;;;2.97;;
73599;SDS011;61877;48.246;9.220;2024-03-06T09:57:43;7.03;;;3.13;;
73599;SDS011;61877;48.246;9.220;2024-03-06T10:00:13;7.60;;;3.20;;
73599;SDS011;61877;48.246;9.220;2024-03-06T10:02:46;7.15;;;2.53;;
73599;SDS011;61877;48.246;9.220;2024-03-06T10:05:20;6.90;;;3.08;;
73599;SDS011;61877;48.246;9.220;2024-03-06T10:07:47;6.38;;;2.92;;
73599;SDS011;61877;48.246;9.220;2024-03-06T10:10:16;6.68;;;3.35;;
73599;SDS011;61877;48.246;9.220;2024-03-06T10:12:44;6.97;;;3.13;;
73599;SDS011;61877;48.246;9.220;2024-03-06T10:15:11;6.93;;;2.90;;
73599;SDS011;61877;48.246;9.220;2024-03-06T10:17:38;6.80;;;2.97;;
73599;SDS011;61877;48.246;9.220;2024-03-06T10:20:17;9.25;;;3.20;;
73599;SDS011;61877;48.246;9.220;2024-03-06T10:22:45;7.93;;;3.40;;
73599;SDS011;61877;48.246;9.220;2024-03-06T10:25:12;7.47;;;3.70;;
73599;SDS011;61877;48.246;9.220;2024-03-06T10:27:42;7.68;;;3.40;;
73599;SDS011;61877;48.246;9.220;2024-03-06T10:30:09;14.27;;;4.13;;
73599;SDS011;61877;48.246;9.220;2024-03-06T10:32:37;27.20;;;5.50;;
73599;SDS011;61877;48.246;9.220;2024-03-06T10:35:04;37.55;;;7.78;;
73599;SDS011;61877;48.246;9.220;2024-03-06T10:37:33;9.47;;;3.80;;
73599;SDS011;61877;48.246;9.220;2024-03-06T10:40:02;10.75;;;4.50;;
73599;SDS011;61877;48.246;9.220;2024-03-06T10:42:29;10.77;;;3.65;;
73599;SDS011;61877;48.246;9.220;2024-03-06T10:44:56;15.40;;;3.90;;
73599;SDS011;61877;48.246;9.220;2024-03-06T10:47:25;7.97;;;3.50;;
73599;SDS011;61877;48.246;9.220;2024-03-06T10:49:54;10.37;;;4.10;;
73599;SDS011;61877;48.246;9.220;2024-03-06T10:52:26;19.23;;;5.80;;
73599;SDS011;61877;48.246;9.220;2024-03-06T10:54:55;26.38;;;5.68;;
73599;SDS011;61877;48.246;9.220;2024-03-06T10:57:25;20.80;;;5.32;;
73599;SDS011;61877;48.246;9.220;2024-03-06T10:59:53;46.17;;;7.50;;
73599;SDS011;61877;48.246;9.220;2024-03-06T11:02:20;10.43;;;4.30;;
73599;SDS011;61877;48.246;9.220;2024-03-06T11:04:48;8.48;;;3.35;;
73599;SDS011;61877;48.246;9.220;2024-03-06T11:07:17;7.60;;;3.30;;
73599;SDS011;61877;48.246;9.220;2024-03-06T11:09:45;7.13;;;2.92;;
73599;SDS011;61877;48.246;9.220;2024-03-06T11:12:31;7.15;;;3.40;;
73599;SDS011;61877;48.246;9.220;2024-03-06T11:14:59;8.37;;;3.47;;
73599;SDS011;61877;48.246;9.220;2024-03-06T11:17:26;6.90;;;2.92;;
73599;SDS011;61877;48.246;9.220;2024-03-06T11:20:12;7.97;;;3.60;;
73599;SDS011;61877;48.246;9.220;2024-03-06T11:28:25;7.73;;;2.83;;
73599;SDS011;61877;48.246;9.220;2024-03-06T11:30:55;6.70;;;3.10;;
73599;SDS011;61877;48.246;9.220;2024-03-06T11:33:22;6.82;;;3.00;;
73599;SDS011;61877;48.246;9.220;2024-03-06T11:38:48;6.60;;;3.20;;
73599;SDS011;61877;48.246;9.220;2024-03-06T11:41:17;7.77;;;3.00;;
73599;SDS011;61877;48.246;9.220;2024-03-06T11:43:49;7.00;;;3.20;;
73599;SDS011;61877;48.246;9.220;2024-03-06T11:46:17;7.32;;;3.03;;
73599;SDS011;61877;48.246;9.220;2024-03-06T11:48:44;7.25;;;2.85;;
73599;SDS011;61877;48.246;9.220;2024-03-06T11:51:18;7.38;;;2.80;;
73599;SDS011;61877;48.246;9.220;2024-03-06T11:53:45;8.17;;;3.37;;
73599;SDS011;61877;48.246;9.220;2024-03-06T11:56:16;9.10;;;3.55;;
73599;SDS011;61877;48.246;9.220;2024-03-06T11:58:44;7.10;;;3.20;;
73599;SDS011;61877;48.246;9.220;2024-03-06T12:01:16;7.43;;;3.00;;
73599;SDS011;61877;48.246;9.220;2024-03-06T12:03:43;7.43;;;3.40;;
73599;SDS011;61877;48.246;9.220;2024-03-06T12:06:10;7.00;;;2.90;;
73599;SDS011;61877;48.246;9.220;2024-03-06T12:08:38;7.30;;;3.00;;
73599;SDS011;61877;48.246;9.220;2024-03-06T12:11:05;8.60;;;3.08;;
73599;SDS011;61877;48.246;9.220;2024-03-06T12:13:32;6.55;;;2.45;;
73599;SDS011;61877;48.246;9.220;2024-03-06T12:15:58;8.20;;;3.78;;
73599;SDS011;61877;48.246;9.220;2024-03-06T12:18:31;8.00;;;3.30;;
73599;SDS011;61877;48.246;9.220;2024-03-06T12:20:59;6.28;;;2.25;;
73599;SDS011;61877;48.246;9.220;2024-03-06T12:23:27;7.55;;;2.97;;
73599;SDS011;61877;48.246;9.220;2024-03-06T12:26:02;7.47;;;3.20;;
73599;SDS011;61877;48.246;9.220;2024-03-06T12:28:30;7.15;;;3.05;;
73599;SDS011;61877;48.246;9.220;2024-03-06T12:30:57;7.17;;;3.00;;
73599;SDS011;61877;48.246;9.220;2024-03-06T12:33:24;7.50;;;3.05;;
73599;SDS011;61877;48.246;9.220;2024-03-06T12:36:00;7.25;;;3.22;;
73599;SDS011;61877;48.246;9.220;2024-03-06T12:38:29;6.60;;;2.72;;
73599;SDS011;61877;48.246;9.220;2024-03-06T12:40:56;8.43;;;3.45;;
73599;SDS011;61877;48.246;9.220;2024-03-06T12:43:23;7.30;;;3.10;;
73599;SDS011;61877;48.246;9.220;2024-03-06T12:45:50;7.22;;;2.95;;
73599;SDS011;61877;48.246;9.220;2024-03-06T12:48:19;8.00;;;3.78;;
73599;SDS011;61877;48.246;9.220;2024-03-06T12:50:46;7.95;;;3.70;;
73599;SDS011;61877;48.246;9.220;2024-03-06T12:53:14;7.80;;;3.40;;
73599;SDS011;61877;48.246;9.220;2024-03-06T12:55:41;7.30;;;2.80;;
73599;SDS011;61877;48.246;9.220;2024-03-06T12:58:08;6.88;;;2.55;;
73599;SDS011;61877;48.246;9.220;2024-03-06T13:00:35;6.50;;;2.70;;
73599;SDS011;61877;48.246;9.220;2024-03-06T13:03:02;6.43;;;2.67;;
73599;SDS011;61877;48.246;9.220;2024-03-06T13:05:29;6.57;;;2.85;;
73599;SDS011;61877;48.246;9.220;2024-03-06T13:07:56;6.93;;;3.00;;
73599;SDS011;61877;48.246;9.220;2024-03-06T13:10:24;6.82;;;2.80;;
73599;SDS011;61877;48.246;9.220;2024-03-06T13:12:51;6.90;;;2.92;;
73599;SDS011;61877;48.246;9.220;2024-03-06T13:15:21;6.85;;;2.75;;
73599;SDS011;61877;48.246;9.220;2024-03-06T13:17:47;7.05;;;2.70;;
73599;SDS011;61877;48.246;9.220;2024-03-06T13:20:14;6.37;;;2.57;;
73599;SDS011;61877;48.246;9.220;2024-03-06T13:22:41;7.75;;;2.90;;
73599;SDS011;61877;48.246;9.220;2024-03-06T13:25:08;7.20;;;2.97;;
73599;SDS011;61877;48.246;9.220;2024-03-06T13:27:36;8.35;;;3.90;;
73599;SDS011;61877;48.246;9.220;2024-03-06T13:30:03;7.47;;;3.38;;
73599;SDS011;61877;48.246;9.220;2024-03-06T13:32:31;7.20;;;3.03;;
73599;SDS011;61877;48.246;9.220;2024-03-06T13:34:58;7.13;;;2.80;;
73599;SDS011;61877;48.246;9.220;2024-03-06T13:37:25;7.53;;;3.00;;
73599;SDS011;61877;48.246;9.220;2024-03-06T13:39:54;6.85;;;2.90;;
73599;SDS011;61877;48.246;9.220;2024-03-06T13:42:21;7.65;;;3.00;;
73599;SDS011;61877;48.246;9.220;2024-03-06T13:44:51;6.73;;;2.50;;
73599;SDS011;61877;48.246;9.220;2024-03-06T13:47:18;6.82;;;3.00;;
73599;SDS011;61877;48.246;9.220;2024-03-06T13:49:45;7.15;;;2.80;;
73599;SDS011;61877;48.246;9.220;2024-03-06T13:52:12;7.60;;;3.00;;
73599;SDS011;61877;48.246;9.220;2024-03-06T13:54:40;7.20;;;2.75;;
73599;SDS011;61877;48.246;9.220;2024-03-06T13:57:08;7.07;;;2.83;;
73599;SDS011;61877;48.246;9.220;2024-03-06T13:59:35;6.80;;;2.80;;
73599;SDS011;61877;48.246;9.220;2024-03-06T14:02:04;7.20;;;3.08;;
73599;SDS011;61877;48.246;9.220;2024-03-06T14:04:32;7.55;;;3.00;;
73599;SDS011;61877;48.246;9.220;2024-03-06T14:06:59;7.18;;;2.70;;
73599;SDS011;61877;48.246;9.220;2024-03-06T14:09:26;8.00;;;3.13;;
73599;SDS011;61877;48.246;9.220;2024-03-06T14:11:53;6.45;;;2.30;;
73599;SDS011;61877;48.246;9.220;2024-03-06T14:14:20;7.15;;;3.10;;
73599;SDS011;61877;48.246;9.220;2024-03-06T14:16:47;7.25;;;2.95;;
73599;SDS011;61877;48.246;9.220;2024-03-06T14:19:16;7.32;;;3.33;;
73599;SDS011;61877;48.246;9.220;2024-03-06T14:21:43;7.47;;;3.10;;
73599;SDS011;61877;48.246;9.220;2024-03-06T14:24:10;7.63;;;3.30;;
73599;SDS011;61877;48.246;9.220;2024-03-06T14:26:37;7.63;;;3.63;;
73599;SDS011;61877;48.246;9.220;2024-03-06T14:29:05;7.30;;;3.30;;
73599;SDS011;61877;48.246;9.220;2024-03-06T14:31:32;7.38;;;3.10;;
73599;SDS011;61877;48.246;9.220;2024-03-06T14:33:59;8.20;;;2.90;;
73599;SDS011;61877;48.246;9.220;2024-03-06T14:36:33;7.32;;;3.20;;
73599;SDS011;61877;48.246;9.220;2024-03-06T14:39:00;7.82;;;3.60;;
73599;SDS011;61877;48.246;9.220;2024-03-06T14:41:27;20.67;;;10.15;;
73599;SDS011;61877;48.246;9.220;2024-03-06T14:43:54;10.68;;;4.80;;
73599;SDS011;61877;48.246;9.220;2024-03-06T14:46:21;10.50;;;3.33;;
73599;SDS011;61877;48.246;9.220;2024-03-06T14:48:48;9.30;;;4.32;;
73599;SDS011;61877;48.246;9.220;2024-03-06T14:51:15;7.95;;;3.70;;
73599;SDS011;61877;48.246;9.220;2024-03-06T14:53:43;9.30;;;4.13;;
73599;SDS011;61877;48.246;9.220;2024-03-06T14:56:11;7.75;;;3.38;;
73599;SDS011;61877;48.246;9.220;2024-03-06T14:58:38;7.30;;;3.07;;
73599;SDS011;61877;48.246;9.220;2024-03-06T15:01:05;7.70;;;3.20;;
73599;SDS011;61877;48.246;9.220;2024-03-06T15:03:32;8.75;;;4.38;;
73599;SDS011;61877;48.246;9.220;2024-03-06T15:05:59;7.30;;;3.20;;
73599;SDS011;61877;48.246;9.220;2024-03-06T15:08:26;7.55;;;3.33;;
73599;SDS011;61877;48.246;9.220;2024-03-06T15:10:54;7.93;;;3.67;;
73599;SDS011;61877;48.246;9.220;2024-03-06T15:13:21;8.45;;;3.50;;
73599;SDS011;61877;48.246;9.220;2024-03-06T15:15:48;7.75;;;3.50;;
73599;SDS011;61877;48.246;9.220;2024-03-06T15:18:16;9.05;;;3.88;;
73599;SDS011;61877;48.246;9.220;2024-03-06T15:20:43;9.30;;;4.35;;
73599;SDS011;61877;48.246;9.220;2024-03-06T15:23:10;8.03;;;3.43;;
73599;SDS011;61877;48.246;9.220;2024-03-06T15:25:37;7.55;;;3.22;;
73599;SDS011;61877;48.246;9.220;2024-03-06T15:28:05;8.02;;;3.38;;